sensor_id;sensor_type;location;lat;lon;timestamp;P1;durP1;ratioP1;P2;durP2;ratioP2
25721;SDS011;13578;53.450;15.496;2022-10-16T00:00:43;11.93;;;6.53;;
25721;SDS011;13578;53.450;15.496;2022-10-16T00:03:44;12.45;;;6.18;;
25721;SDS011;13578;53.450;15.496;2022-10-16T00:06:45;8.80;;;5.45;;
25721;SDS011;13578;53.450;15.496;2022-10-16T00:09:46;10.43;;;6.15;;
25721;SDS011;13578;53.450;15.496;2022-10-16T00:12:47;13.00;;;6.57;;
25721;SDS011;13578;53.450;15.496;2022-10-16T00:15:49;9.57;;;5.35;;
25721;SDS011;13578;53.450;15.496;2022-10-16T00:18:49;12.38;;;5.90;;
25721;SDS011;13578;53.450;15.496;2022-10-16T00:21:50;9.32;;;6.03;;
25721;SDS011;13578;53.450;15.496;2022-10-16T00:24:50;9.80;;;5.70;;
25721;SDS011;13578;53.450;15.496;2022-10-16T00:27:51;12.88;;;5.78;;
25721;SDS011;13578;53.450;15.496;2022-10-16T00:30:52;9.23;;;5.35;;
25721;SDS011;13578;53.450;15.496;2022-10-16T00:33:53;12.38;;;5.65;;
25721;SDS011;13578;53.450;15.496;2022-10-16T00:36:54;12.52;;;5.78;;
25721;SDS011;13578;53.450;15.496;2022-10-16T00:39:55;8.70;;;4.85;;
25721;SDS011;13578;53.450;15.496;2022-10-16T00:42:56;46.88;;;6.25;;
25721;SDS011;13578;53.450;15.496;2022-10-16T00:45:56;9.40;;;5.38;;
25721;SDS011;13578;53.450;15.496;2022-10-16T00:49:01;8.82;;;4.90;;
25721;SDS011;13578;53.450;15.496;2022-10-16T00:52:06;9.32;;;4.95;;
25721;SDS011;13578;53.450;15.496;2022-10-16T00:55:08;12.32;;;5.38;;
25721;SDS011;13578;53.450;15.496;2022-10-16T00:58:09;10.60;;;5.90;;
25721;SDS011;13578;53.450;15.496;2022-10-16T01:01:10;7.85;;;4.78;;
25721;SDS011;13578;53.450;15.496;2022-10-16T01:04:11;8.90;;;5.00;;
25721;SDS011;13578;53.450;15.496;2022-10-16T01:07:27;8.85;;;5.50;;
25721;SDS011;13578;53.450;15.496;2022-10-16T01:10:40;13.32;;;5.40;;
25721;SDS011;13578;53.450;15.496;2022-10-16T01:13:54;11.10;;;5.80;;
25721;SDS011;13578;53.450;15.496;2022-10-16T01:17:00;15.30;;;5.22;;
25721;SDS011;13578;53.450;15.496;2022-10-16T01:20:14;9.40;;;5.50;;
25721;SDS011;13578;53.450;15.496;2022-10-16T01:26:50;8.43;;;5.30;;
25721;SDS011;13578;53.450;15.496;2022-10-16T01:30:14;9.50;;;5.18;;
25721;SDS011;13578;53.450;15.496;2022-10-16T01:33:24;10.35;;;5.10;;
25721;SDS011;13578;53.450;15.496;2022-10-16T01:36:39;9.07;;;5.43;;
25721;SDS011;13578;53.450;15.496;2022-10-16T01:39:56;9.23;;;5.72;;
25721;SDS011;13578;53.450;15.496;2022-10-16T01:43:03;10.05;;;4.85;;
25721;SDS011;13578;53.450;15.496;2022-10-16T01:46:08;9.95;;;5.50;;
25721;SDS011;13578;53.450;15.496;2022-10-16T01:49:14;8.00;;;5.07;;
25721;SDS011;13578;53.450;15.496;2022-10-16T01:52:21;10.77;;;4.55;;
25721;SDS011;13578;53.450;15.496;2022-10-16T01:55:28;7.43;;;4.82;;
25721;SDS011;13578;53.450;15.496;2022-10-16T01:58:35;13.40;;;5.40;;
25721;SDS011;13578;53.450;15.496;2022-10-16T02:01:46;9.60;;;4.68;;
25721;SDS011;13578;53.450;15.496;2022-10-16T02:05:14;6.70;;;4.33;;
25721;SDS011;13578;53.450;15.496;2022-10-16T02:08:21;11.20;;;4.65;;
25721;SDS011;13578;53.450;15.496;2022-10-16T02:11:24;8.35;;;5.10;;
25721;SDS011;13578;53.450;15.496;2022-10-16T02:14:25;5.90;;;4.38;;
25721;SDS011;13578;53.450;15.496;2022-10-16T02:17:27;9.80;;;4.47;;
25721;SDS011;13578;53.450;15.496;2022-10-16T02:20:30;9.95;;;4.95;;
25721;SDS011;13578;53.450;15.496;2022-10-16T02:23:40;11.18;;;4.78;;
25721;SDS011;13578;53.450;15.496;2022-10-16T02:26:52;14.57;;;4.90;;
25721;SDS011;13578;53.450;15.496;2022-10-16T02:30:13;6.18;;;4.45;;
25721;SDS011;13578;53.450;15.496;2022-10-16T02:33:29;8.60;;;4.25;;
25721;SDS011;13578;53.450;15.496;2022-10-16T02:36:33;7.45;;;4.45;;
25721;SDS011;13578;53.450;15.496;2022-10-16T02:39:39;6.80;;;3.95;;
25721;SDS011;13578;53.450;15.496;2022-10-16T02:42:42;8.25;;;4.20;;
25721;SDS011;13578;53.450;15.496;2022-10-16T02:45:44;7.78;;;4.25;;
25721;SDS011;13578;53.450;15.496;2022-10-16T02:48:49;6.65;;;4.00;;
25721;SDS011;13578;53.450;15.496;2022-10-16T02:51:55;10.75;;;4.13;;
25721;SDS011;13578;53.450;15.496;2022-10-16T02:54:57;7.63;;;4.03;;
25721;SDS011;13578;53.450;15.496;2022-10-16T02:57:58;9.48;;;4.57;;
25721;SDS011;13578;53.450;15.496;2022-10-16T03:00:59;7.43;;;4.40;;
25721;SDS011;13578;53.450;15.496;2022-10-16T03:04:01;5.90;;;4.05;;
25721;SDS011;13578;53.450;15.496;2022-10-16T03:07:04;6.50;;;4.43;;
25721;SDS011;13578;53.450;15.496;2022-10-16T03:10:08;9.95;;;4.60;;
25721;SDS011;13578;53.450;15.496;2022-10-16T03:13:09;6.30;;;4.13;;
25721;SDS011;13578;53.450;15.496;2022-10-16T03:16:10;16.55;;;4.38;;
25721;SDS011;13578;53.450;15.496;2022-10-16T03:19:13;6.75;;;4.28;;
25721;SDS011;13578;53.450;15.496;2022-10-16T03:22:17;11.32;;;4.55;;
25721;SDS011;13578;53.450;15.496;2022-10-16T03:25:18;10.95;;;4.63;;
25721;SDS011;13578;53.450;15.496;2022-10-16T03:28:20;7.03;;;4.28;;
25721;SDS011;13578;53.450;15.496;2022-10-16T03:31:23;13.25;;;5.03;;
25721;SDS011;13578;53.450;15.496;2022-10-16T03:34:24;7.68;;;5.03;;
25721;SDS011;13578;53.450;15.496;2022-10-16T03:37:25;7.07;;;4.18;;
25721;SDS011;13578;53.450;15.496;2022-10-16T03:40:26;11.00;;;4.55;;
25721;SDS011;13578;53.450;15.496;2022-10-16T03:43:27;8.13;;;4.22;;
25721;SDS011;13578;53.450;15.496;2022-10-16T03:46:28;7.88;;;4.70;;
25721;SDS011;13578;53.450;15.496;2022-10-16T03:49:29;12.27;;;5.13;;
25721;SDS011;13578;53.450;15.496;2022-10-16T03:52:30;8.95;;;4.75;;
25721;SDS011;13578;53.450;15.496;2022-10-16T03:55:32;7.63;;;4.68;;
25721;SDS011;13578;53.450;15.496;2022-10-16T03:58:32;12.77;;;4.65;;
25721;SDS011;13578;53.450;15.496;2022-10-16T04:01:34;9.52;;;4.45;;
25721;SDS011;13578;53.450;15.496;2022-10-16T04:04:35;6.57;;;4.13;;
25721;SDS011;13578;53.450;15.496;2022-10-16T04:07:36;7.10;;;4.22;;
25721;SDS011;13578;53.450;15.496;2022-10-16T04:10:37;7.30;;;4.20;;
25721;SDS011;13578;53.450;15.496;2022-10-16T04:13:44;7.13;;;3.70;;
25721;SDS011;13578;53.450;15.496;2022-10-16T04:17:29;6.47;;;4.20;;
25721;SDS011;13578;53.450;15.496;2022-10-16T04:20:30;8.95;;;4.13;;
25721;SDS011;13578;53.450;15.496;2022-10-16T04:23:31;9.55;;;4.30;;
25721;SDS011;13578;53.450;15.496;2022-10-16T04:26:38;7.85;;;4.00;;
25721;SDS011;13578;53.450;15.496;2022-10-16T04:29:42;7.03;;;4.15;;
25721;SDS011;13578;53.450;15.496;2022-10-16T04:32:43;6.60;;;3.97;;
25721;SDS011;13578;53.450;15.496;2022-10-16T04:35:55;7.78;;;4.05;;
25721;SDS011;13578;53.450;15.496;2022-10-16T04:38:57;6.45;;;3.92;;
25721;SDS011;13578;53.450;15.496;2022-10-16T04:41:59;8.05;;;4.30;;
25721;SDS011;13578;53.450;15.496;2022-10-16T04:45:00;10.70;;;3.95;;
25721;SDS011;13578;53.450;15.496;2022-10-16T04:48:01;6.15;;;4.03;;
25721;SDS011;13578;53.450;15.496;2022-10-16T04:51:02;10.55;;;3.97;;
25721;SDS011;13578;53.450;15.496;2022-10-16T04:54:03;7.30;;;4.00;;
25721;SDS011;13578;53.450;15.496;2022-10-16T04:57:04;7.05;;;3.75;;
25721;SDS011;13578;53.450;15.496;2022-10-16T05:00:06;6.82;;;4.03;;
25721;SDS011;13578;53.450;15.496;2022-10-16T05:03:08;5.15;;;3.15;;
25721;SDS011;13578;53.450;15.496;2022-10-16T05:06:09;25.02;;;4.22;;
25721;SDS011;13578;53.450;15.496;2022-10-16T05:09:10;5.18;;;3.30;;
25721;SDS011;13578;53.450;15.496;2022-10-16T05:12:11;8.50;;;3.72;;
25721;SDS011;13578;53.450;15.496;2022-10-16T05:15:12;5.07;;;3.20;;
25721;SDS011;13578;53.450;15.496;2022-10-16T05:18:13;5.25;;;3.10;;
25721;SDS011;13578;53.450;15.496;2022-10-16T05:21:13;6.18;;;3.92;;
25721;SDS011;13578;53.450;15.496;2022-10-16T05:24:14;4.80;;;3.10;;
25721;SDS011;13578;53.450;15.496;2022-10-16T05:27:15;5.07;;;3.10;;
25721;SDS011;13578;53.450;15.496;2022-10-16T05:30:19;4.63;;;2.80;;
25721;SDS011;13578;53.450;15.496;2022-10-16T05:33:20;4.47;;;2.90;;
25721;SDS011;13578;53.450;15.496;2022-10-16T05:36:22;5.45;;;3.08;;
25721;SDS011;13578;53.450;15.496;2022-10-16T05:39:23;7.07;;;3.25;;
25721;SDS011;13578;53.450;15.496;2022-10-16T05:42:24;6.65;;;3.25;;
25721;SDS011;13578;53.450;15.496;2022-10-16T05:45:24;11.30;;;3.30;;
25721;SDS011;13578;53.450;15.496;2022-10-16T05:48:26;4.65;;;2.90;;
25721;SDS011;13578;53.450;15.496;2022-10-16T05:51:27;6.28;;;3.20;;
25721;SDS011;13578;53.450;15.496;2022-10-16T05:54:28;13.07;;;3.35;;
25721;SDS011;13578;53.450;15.496;2022-10-16T05:57:29;7.55;;;3.47;;
25721;SDS011;13578;53.450;15.496;2022-10-16T06:00:30;9.32;;;3.60;;
25721;SDS011;13578;53.450;15.496;2022-10-16T06:03:30;5.57;;;3.00;;
25721;SDS011;13578;53.450;15.496;2022-10-16T06:06:31;5.40;;;3.13;;
25721;SDS011;13578;53.450;15.496;2022-10-16T06:09:32;5.10;;;3.28;;
25721;SDS011;13578;53.450;15.496;2022-10-16T06:12:32;5.45;;;3.00;;
25721;SDS011;13578;53.450;15.496;2022-10-16T06:15:33;6.25;;;3.22;;
25721;SDS011;13578;53.450;15.496;2022-10-16T06:18:33;4.45;;;3.03;;
25721;SDS011;13578;53.450;15.496;2022-10-16T06:21:34;5.72;;;3.10;;
25721;SDS011;13578;53.450;15.496;2022-10-16T06:24:35;5.55;;;2.97;;
25721;SDS011;13578;53.450;15.496;2022-10-16T06:27:38;5.85;;;3.38;;
25721;SDS011;13578;53.450;15.496;2022-10-16T06:30:40;3.90;;;2.75;;
25721;SDS011;13578;53.450;15.496;2022-10-16T06:33:43;11.07;;;3.65;;
25721;SDS011;13578;53.450;15.496;2022-10-16T06:36:45;13.70;;;3.35;;
25721;SDS011;13578;53.450;15.496;2022-10-16T06:39:46;4.78;;;2.90;;
25721;SDS011;13578;53.450;15.496;2022-10-16T06:42:46;4.95;;;2.92;;
25721;SDS011;13578;53.450;15.496;2022-10-16T06:45:54;7.60;;;3.03;;
25721;SDS011;13578;53.450;15.496;2022-10-16T06:48:56;4.75;;;3.17;;
25721;SDS011;13578;53.450;15.496;2022-10-16T06:51:56;5.32;;;2.78;;
25721;SDS011;13578;53.450;15.496;2022-10-16T06:54:57;6.03;;;3.17;;
25721;SDS011;13578;53.450;15.496;2022-10-16T06:57:57;7.13;;;3.00;;
25721;SDS011;13578;53.450;15.496;2022-10-16T07:00:58;5.07;;;3.00;;
25721;SDS011;13578;53.450;15.496;2022-10-16T07:03:59;5.07;;;3.20;;
25721;SDS011;13578;53.450;15.496;2022-10-16T07:07:01;7.75;;;3.20;;
25721;SDS011;13578;53.450;15.496;2022-10-16T07:10:01;4.80;;;2.58;;
25721;SDS011;13578;53.450;15.496;2022-10-16T07:13:02;5.93;;;2.65;;
25721;SDS011;13578;53.450;15.496;2022-10-16T07:16:07;5.10;;;2.67;;
25721;SDS011;13578;53.450;15.496;2022-10-16T07:19:09;5.13;;;3.10;;
25721;SDS011;13578;53.450;15.496;2022-10-16T07:22:11;4.53;;;2.30;;
25721;SDS011;13578;53.450;15.496;2022-10-16T07:25:12;4.80;;;2.58;;
25721;SDS011;13578;53.450;15.496;2022-10-16T07:28:13;6.15;;;3.10;;
25721;SDS011;13578;53.450;15.496;2022-10-16T07:31:14;5.22;;;2.78;;
25721;SDS011;13578;53.450;15.496;2022-10-16T07:34:16;3.90;;;2.22;;
25721;SDS011;13578;53.450;15.496;2022-10-16T07:37:18;8.35;;;2.92;;
25721;SDS011;13578;53.450;15.496;2022-10-16T07:40:19;4.82;;;2.80;;
25721;SDS011;13578;53.450;15.496;2022-10-16T07:43:19;4.68;;;2.38;;
25721;SDS011;13578;53.450;15.496;2022-10-16T07:46:20;4.50;;;2.30;;
25721;SDS011;13578;53.450;15.496;2022-10-16T07:49:22;5.65;;;2.22;;
25721;SDS011;13578;53.450;15.496;2022-10-16T07:52:23;4.32;;;2.15;;
25721;SDS011;13578;53.450;15.496;2022-10-16T07:55:23;3.28;;;2.33;;
25721;SDS011;13578;53.450;15.496;2022-10-16T07:58:24;5.28;;;1.90;;
25721;SDS011;13578;53.450;15.496;2022-10-16T08:01:24;6.63;;;2.03;;
25721;SDS011;13578;53.450;15.496;2022-10-16T08:04:25;5.63;;;2.03;;
25721;SDS011;13578;53.450;15.496;2022-10-16T08:07:26;2.72;;;1.90;;
25721;SDS011;13578;53.450;15.496;2022-10-16T08:10:27;4.47;;;1.98;;
25721;SDS011;13578;53.450;15.496;2022-10-16T08:13:29;4.38;;;2.33;;
25721;SDS011;13578;53.450;15.496;2022-10-16T08:16:30;4.32;;;2.15;;
25721;SDS011;13578;53.450;15.496;2022-10-16T08:19:31;5.60;;;1.77;;
25721;SDS011;13578;53.450;15.496;2022-10-16T08:22:34;3.72;;;2.10;;
25721;SDS011;13578;53.450;15.496;2022-10-16T08:25:35;5.30;;;1.92;;
25721;SDS011;13578;53.450;15.496;2022-10-16T08:28:37;2.95;;;1.83;;
25721;SDS011;13578;53.450;15.496;2022-10-16T08:31:38;4.55;;;2.10;;
25721;SDS011;13578;53.450;15.496;2022-10-16T08:34:38;2.63;;;1.65;;
25721;SDS011;13578;53.450;15.496;2022-10-16T08:37:39;2.60;;;1.80;;
25721;SDS011;13578;53.450;15.496;2022-10-16T08:40:41;6.00;;;2.03;;
25721;SDS011;13578;53.450;15.496;2022-10-16T08:44:01;2.50;;;1.63;;
25721;SDS011;13578;53.450;15.496;2022-10-16T08:47:13;3.30;;;1.80;;
25721;SDS011;13578;53.450;15.496;2022-10-16T08:50:24;2.47;;;1.20;;
25721;SDS011;13578;53.450;15.496;2022-10-16T08:53:31;5.65;;;1.42;;
25721;SDS011;13578;53.450;15.496;2022-10-16T08:56:40;6.47;;;2.45;;
25721;SDS011;13578;53.450;15.496;2022-10-16T08:59:41;3.83;;;0.98;;
25721;SDS011;13578;53.450;15.496;2022-10-16T09:03:26;2.40;;;1.10;;
25721;SDS011;13578;53.450;15.496;2022-10-16T09:16:35;4.88;;;1.63;;
25721;SDS011;13578;53.450;15.496;2022-10-16T09:19:41;2.53;;;1.27;;
25721;SDS011;13578;53.450;15.496;2022-10-16T09:22:46;1.90;;;1.00;;
25721;SDS011;13578;53.450;15.496;2022-10-16T09:25:48;1.63;;;0.90;;
25721;SDS011;13578;53.450;15.496;2022-10-16T09:28:51;2.10;;;1.05;;
25721;SDS011;13578;53.450;15.496;2022-10-16T09:31:53;6.32;;;1.08;;
25721;SDS011;13578;53.450;15.496;2022-10-16T09:34:55;2.45;;;0.98;;
25721;SDS011;13578;53.450;15.496;2022-10-16T09:37:57;6.65;;;1.10;;
25721;SDS011;13578;53.450;15.496;2022-10-16T09:40:58;2.08;;;0.75;;
25721;SDS011;13578;53.450;15.496;2022-10-16T09:44:01;3.60;;;0.82;;
25721;SDS011;13578;53.450;15.496;2022-10-16T09:47:05;1.73;;;0.70;;
25721;SDS011;13578;53.450;15.496;2022-10-16T09:53:39;2.20;;;0.60;;
25721;SDS011;13578;53.450;15.496;2022-10-16T09:56:47;1.08;;;0.50;;
25721;SDS011;13578;53.450;15.496;2022-10-16T09:59:55;4.15;;;1.08;;
25721;SDS011;13578;53.450;15.496;2022-10-16T10:02:57;2.78;;;0.70;;
25721;SDS011;13578;53.450;15.496;2022-10-16T10:05:58;4.63;;;0.70;;
25721;SDS011;13578;53.450;15.496;2022-10-16T10:09:00;1.48;;;0.65;;
25721;SDS011;13578;53.450;15.496;2022-10-16T10:12:27;3.05;;;0.52;;
25721;SDS011;13578;53.450;15.496;2022-10-16T10:15:33;3.65;;;1.15;;
25721;SDS011;13578;53.450;15.496;2022-10-16T10:18:36;2.42;;;0.88;;
25721;SDS011;13578;53.450;15.496;2022-10-16T10:21:37;2.80;;;0.90;;
25721;SDS011;13578;53.450;15.496;2022-10-16T10:24:38;2.15;;;0.82;;
25721;SDS011;13578;53.450;15.496;2022-10-16T10:34:12;1.25;;;0.70;;
25721;SDS011;13578;53.450;15.496;2022-10-16T10:37:58;4.22;;;0.52;;
25721;SDS011;13578;53.450;15.496;2022-10-16T10:48:06;4.90;;;0.70;;
25721;SDS011;13578;53.450;15.496;2022-10-16T10:51:13;1.48;;;0.70;;
25721;SDS011;13578;53.450;15.496;2022-10-16T11:08:31;4.05;;;0.40;;
25721;SDS011;13578;53.450;15.496;2022-10-16T11:11:47;1.58;;;0.63;;
25721;SDS011;13578;53.450;15.496;2022-10-16T11:22:15;3.70;;;0.50;;
25721;SDS011;13578;53.450;15.496;2022-10-16T11:25:21;1.85;;;0.20;;
25721;SDS011;13578;53.450;15.496;2022-10-16T11:28:39;1.70;;;0.40;;
25721;SDS011;13578;53.450;15.496;2022-10-16T11:31:48;4.03;;;0.20;;
25721;SDS011;13578;53.450;15.496;2022-10-16T11:34:55;1.10;;;0.50;;
25721;SDS011;13578;53.450;15.496;2022-10-16T11:38:01;6.55;;;0.30;;
25721;SDS011;13578;53.450;15.496;2022-10-16T11:41:31;2.95;;;1.05;;
25721;SDS011;13578;53.450;15.496;2022-10-16T11:44:42;1.83;;;0.77;;
25721;SDS011;13578;53.450;15.496;2022-10-16T11:48:08;1.35;;;0.50;;
25721;SDS011;13578;53.450;15.496;2022-10-16T11:51:36;1.50;;;0.30;;
25721;SDS011;13578;53.450;15.496;2022-10-16T11:54:58;1.15;;;0.20;;
25721;SDS011;13578;53.450;15.496;2022-10-16T11:58:05;1.30;;;0.63;;
25721;SDS011;13578;53.450;15.496;2022-10-16T12:04:33;2.60;;;0.60;;
25721;SDS011;13578;53.450;15.496;2022-10-16T12:07:54;2.75;;;0.70;;
25721;SDS011;13578;53.450;15.496;2022-10-16T12:17:36;0.95;;;0.35;;
25721;SDS011;13578;53.450;15.496;2022-10-16T12:20:38;1.60;;;0.40;;
25721;SDS011;13578;53.450;15.496;2022-10-16T12:23:49;0.98;;;0.63;;
25721;SDS011;13578;53.450;15.496;2022-10-16T12:26:50;3.13;;;1.05;;
25721;SDS011;13578;53.450;15.496;2022-10-16T12:29:56;1.85;;;0.68;;
25721;SDS011;13578;53.450;15.496;2022-10-16T12:33:03;5.78;;;0.60;;
25721;SDS011;13578;53.450;15.496;2022-10-16T12:36:53;8.75;;;0.60;;
25721;SDS011;13578;53.450;15.496;2022-10-16T12:39:47;0.70;;;0.40;;
25721;SDS011;13578;53.450;15.496;2022-10-16T12:42:49;3.20;;;0.70;;
25721;SDS011;13578;53.450;15.496;2022-10-16T12:45:58;1.15;;;0.60;;
25721;SDS011;13578;53.450;15.496;2022-10-16T12:52:29;1.92;;;0.50;;
25721;SDS011;13578;53.450;15.496;2022-10-16T12:55:42;2.38;;;0.60;;
25721;SDS011;13578;53.450;15.496;2022-10-16T12:59:16;5.75;;;1.20;;
25721;SDS011;13578;53.450;15.496;2022-10-16T13:09:02;1.45;;;0.73;;
25721;SDS011;13578;53.450;15.496;2022-10-16T13:12:45;0.75;;;0.40;;
25721;SDS011;13578;53.450;15.496;2022-10-16T13:22:33;0.73;;;0.50;;
25721;SDS011;13578;53.450;15.496;2022-10-16T13:25:51;1.90;;;0.65;;
25721;SDS011;13578;53.450;15.496;2022-10-16T13:29:13;7.95;;;0.60;;
25721;SDS011;13578;53.450;15.496;2022-10-16T13:32:14;0.40;;;0.25;;
25721;SDS011;13578;53.450;15.496;2022-10-16T13:35:20;1.45;;;0.20;;
25721;SDS011;13578;53.450;15.496;2022-10-16T13:38:24;0.63;;;0.22;;
25721;SDS011;13578;53.450;15.496;2022-10-16T13:41:27;0.73;;;0.30;;
25721;SDS011;13578;53.450;15.496;2022-10-16T13:44:27;4.90;;;1.02;;
25721;SDS011;13578;53.450;15.496;2022-10-16T13:47:35;1.55;;;0.57;;
25721;SDS011;13578;53.450;15.496;2022-10-16T13:50:36;0.65;;;0.30;;
25721;SDS011;13578;53.450;15.496;2022-10-16T13:53:36;9.60;;;0.40;;
25721;SDS011;13578;53.450;15.496;2022-10-16T13:56:38;1.17;;;0.43;;
25721;SDS011;13578;53.450;15.496;2022-10-16T13:59:40;0.77;;;0.40;;
25721;SDS011;13578;53.450;15.496;2022-10-16T14:02:41;1.92;;;0.40;;
25721;SDS011;13578;53.450;15.496;2022-10-16T14:05:45;0.82;;;0.30;;
25721;SDS011;13578;53.450;15.496;2022-10-16T14:09:11;0.88;;;0.52;;
25721;SDS011;13578;53.450;15.496;2022-10-16T14:12:19;0.77;;;0.35;;
25721;SDS011;13578;53.450;15.496;2022-10-16T14:15:21;1.27;;;0.20;;
25721;SDS011;13578;53.450;15.496;2022-10-16T14:18:23;1.42;;;0.30;;
25721;SDS011;13578;53.450;15.496;2022-10-16T14:21:27;2.58;;;0.38;;
25721;SDS011;13578;53.450;15.496;2022-10-16T14:24:34;0.80;;;0.40;;
25721;SDS011;13578;53.450;15.496;2022-10-16T14:27:36;6.95;;;1.17;;
25721;SDS011;13578;53.450;15.496;2022-10-16T14:30:37;1.90;;;0.20;;
25721;SDS011;13578;53.450;15.496;2022-10-16T14:33:48;1.25;;;0.60;;
25721;SDS011;13578;53.450;15.496;2022-10-16T14:36:49;0.90;;;0.30;;
25721;SDS011;13578;53.450;15.496;2022-10-16T14:39:50;0.55;;;0.25;;
25721;SDS011;13578;53.450;15.496;2022-10-16T14:42:52;0.63;;;0.30;;
25721;SDS011;13578;53.450;15.496;2022-10-16T14:45:54;0.80;;;0.30;;
25721;SDS011;13578;53.450;15.496;2022-10-16T14:49:00;0.50;;;0.30;;
25721;SDS011;13578;53.450;15.496;2022-10-16T14:52:11;3.30;;;0.30;;
25721;SDS011;13578;53.450;15.496;2022-10-16T14:55:14;0.80;;;0.30;;
25721;SDS011;13578;53.450;15.496;2022-10-16T14:58:18;2.90;;;0.47;;
25721;SDS011;13578;53.450;15.496;2022-10-16T15:01:22;2.47;;;0.20;;
25721;SDS011;13578;53.450;15.496;2022-10-16T15:04:22;0.75;;;0.22;;
25721;SDS011;13578;53.450;15.496;2022-10-16T15:07:23;1.17;;;0.63;;
25721;SDS011;13578;53.450;15.496;2022-10-16T15:10:25;0.70;;;0.30;;
25721;SDS011;13578;53.450;15.496;2022-10-16T15:13:27;0.63;;;0.30;;
25721;SDS011;13578;53.450;15.496;2022-10-16T15:16:28;0.63;;;0.30;;
25721;SDS011;13578;53.450;15.496;2022-10-16T15:19:29;1.88;;;0.45;;
25721;SDS011;13578;53.450;15.496;2022-10-16T15:22:30;0.63;;;0.38;;
25721;SDS011;13578;53.450;15.496;2022-10-16T15:25:32;1.15;;;0.63;;
25721;SDS011;13578;53.450;15.496;2022-10-16T15:28:46;0.80;;;0.30;;
25721;SDS011;13578;53.450;15.496;2022-10-16T15:31:47;0.88;;;0.30;;
25721;SDS011;13578;53.450;15.496;2022-10-16T15:34:48;0.88;;;0.30;;
25721;SDS011;13578;53.450;15.496;2022-10-16T15:37:48;2.05;;;0.57;;
25721;SDS011;13578;53.450;15.496;2022-10-16T15:40:49;2.42;;;0.32;;
25721;SDS011;13578;53.450;15.496;2022-10-16T15:43:50;0.45;;;0.28;;
25721;SDS011;13578;53.450;15.496;2022-10-16T15:46:52;2.70;;;0.20;;
25721;SDS011;13578;53.450;15.496;2022-10-16T15:49:54;4.22;;;0.38;;
25721;SDS011;13578;53.450;15.496;2022-10-16T15:52:55;0.80;;;0.35;;
25721;SDS011;13578;53.450;15.496;2022-10-16T15:55:55;2.08;;;0.40;;
25721;SDS011;13578;53.450;15.496;2022-10-16T15:58:56;1.88;;;0.30;;
25721;SDS011;13578;53.450;15.496;2022-10-16T16:01:58;0.93;;;0.50;;
25721;SDS011;13578;53.450;15.496;2022-10-16T16:04:58;1.05;;;0.25;;
25721;SDS011;13578;53.450;15.496;2022-10-16T16:07:59;0.47;;;0.20;;
25721;SDS011;13578;53.450;15.496;2022-10-16T16:11:00;1.67;;;0.30;;
25721;SDS011;13578;53.450;15.496;2022-10-16T16:14:02;1.88;;;0.30;;
25721;SDS011;13578;53.450;15.496;2022-10-16T16:17:03;0.80;;;0.30;;
25721;SDS011;13578;53.450;15.496;2022-10-16T16:20:04;1.85;;;0.20;;
25721;SDS011;13578;53.450;15.496;2022-10-16T16:23:05;0.73;;;0.40;;
25721;SDS011;13578;53.450;15.496;2022-10-16T16:29:12;1.33;;;0.30;;
25721;SDS011;13578;53.450;15.496;2022-10-16T16:32:14;1.65;;;0.50;;
25721;SDS011;13578;53.450;15.496;2022-10-16T16:35:14;3.22;;;0.40;;
25721;SDS011;13578;53.450;15.496;2022-10-16T16:38:15;1.42;;;0.55;;
25721;SDS011;13578;53.450;15.496;2022-10-16T16:41:18;2.17;;;0.60;;
25721;SDS011;13578;53.450;15.496;2022-10-16T16:44:20;0.65;;;0.40;;
25721;SDS011;13578;53.450;15.496;2022-10-16T16:47:21;4.55;;;0.82;;
25721;SDS011;13578;53.450;15.496;2022-10-16T16:50:21;3.15;;;0.70;;
25721;SDS011;13578;53.450;15.496;2022-10-16T16:53:22;1.08;;;0.57;;
25721;SDS011;13578;53.450;15.496;2022-10-16T16:56:23;4.32;;;0.73;;
25721;SDS011;13578;53.450;15.496;2022-10-16T16:59:24;1.38;;;0.60;;
25721;SDS011;13578;53.450;15.496;2022-10-16T17:02:25;1.70;;;0.40;;
25721;SDS011;13578;53.450;15.496;2022-10-16T17:05:26;6.10;;;1.10;;
25721;SDS011;13578;53.450;15.496;2022-10-16T17:08:26;5.00;;;0.50;;
25721;SDS011;13578;53.450;15.496;2022-10-16T17:11:28;2.40;;;0.60;;
25721;SDS011;13578;53.450;15.496;2022-10-16T17:14:29;0.93;;;0.50;;
25721;SDS011;13578;53.450;15.496;2022-10-16T17:17:30;4.88;;;0.70;;
25721;SDS011;13578;53.450;15.496;2022-10-16T17:20:30;4.53;;;0.70;;
25721;SDS011;13578;53.450;15.496;2022-10-16T17:23:31;5.70;;;2.20;;
25721;SDS011;13578;53.450;15.496;2022-10-16T17:26:33;5.38;;;2.00;;
25721;SDS011;13578;53.450;15.496;2022-10-16T17:29:37;2.88;;;1.17;;
25721;SDS011;13578;53.450;15.496;2022-10-16T17:32:37;1.10;;;0.73;;
25721;SDS011;13578;53.450;15.496;2022-10-16T17:35:39;0.70;;;0.40;;
25721;SDS011;13578;53.450;15.496;2022-10-16T17:38:42;0.82;;;0.60;;
25721;SDS011;13578;53.450;15.496;2022-10-16T17:41:43;2.38;;;1.05;;
25721;SDS011;13578;53.450;15.496;2022-10-16T17:44:45;9.85;;;1.08;;
25721;SDS011;13578;53.450;15.496;2022-10-16T17:47:46;1.35;;;0.60;;
25721;SDS011;13578;53.450;15.496;2022-10-16T17:50:46;1.10;;;0.70;;
25721;SDS011;13578;53.450;15.496;2022-10-16T17:53:51;1.25;;;0.80;;
25721;SDS011;13578;53.450;15.496;2022-10-16T17:56:53;1.17;;;0.70;;
25721;SDS011;13578;53.450;15.496;2022-10-16T17:59:53;0.80;;;0.60;;
25721;SDS011;13578;53.450;15.496;2022-10-16T18:02:54;1.55;;;0.75;;
25721;SDS011;13578;53.450;15.496;2022-10-16T18:05:55;1.17;;;0.75;;
25721;SDS011;13578;53.450;15.496;2022-10-16T18:08:56;7.32;;;0.70;;
25721;SDS011;13578;53.450;15.496;2022-10-16T18:11:57;6.60;;;0.90;;
25721;SDS011;13578;53.450;15.496;2022-10-16T18:15:01;1.02;;;0.60;;
25721;SDS011;13578;53.450;15.496;2022-10-16T18:18:03;2.25;;;0.80;;
25721;SDS011;13578;53.450;15.496;2022-10-16T18:21:05;2.05;;;0.60;;
25721;SDS011;13578;53.450;15.496;2022-10-16T18:24:07;3.22;;;0.52;;
25721;SDS011;13578;53.450;15.496;2022-10-16T18:27:08;11.70;;;1.00;;
25721;SDS011;13578;53.450;15.496;2022-10-16T18:30:09;4.10;;;0.80;;
25721;SDS011;13578;53.450;15.496;2022-10-16T18:33:11;3.17;;;1.00;;
25721;SDS011;13578;53.450;15.496;2022-10-16T18:36:11;0.80;;;0.60;;
25721;SDS011;13578;53.450;15.496;2022-10-16T18:39:12;5.60;;;1.58;;
25721;SDS011;13578;53.450;15.496;2022-10-16T18:42:16;3.80;;;0.60;;
25721;SDS011;13578;53.450;15.496;2022-10-16T18:45:16;1.08;;;0.57;;
25721;SDS011;13578;53.450;15.496;2022-10-16T18:48:17;7.53;;;1.00;;
25721;SDS011;13578;53.450;15.496;2022-10-16T18:51:22;1.67;;;0.57;;
25721;SDS011;13578;53.450;15.496;2022-10-16T18:54:25;5.53;;;1.10;;
25721;SDS011;13578;53.450;15.496;2022-10-16T18:57:26;3.65;;;0.90;;
25721;SDS011;13578;53.450;15.496;2022-10-16T19:00:28;1.33;;;0.90;;
25721;SDS011;13578;53.450;15.496;2022-10-16T19:03:29;6.10;;;1.45;;
25721;SDS011;13578;53.450;15.496;2022-10-16T19:06:34;2.35;;;0.52;;
25721;SDS011;13578;53.450;15.496;2022-10-16T19:09:36;5.45;;;1.00;;
25721;SDS011;13578;53.450;15.496;2022-10-16T19:12:37;4.68;;;0.75;;
25721;SDS011;13578;53.450;15.496;2022-10-16T19:15:41;2.47;;;0.68;;
25721;SDS011;13578;53.450;15.496;2022-10-16T19:18:42;4.97;;;0.95;;
25721;SDS011;13578;53.450;15.496;2022-10-16T19:21:43;1.80;;;1.23;;
25721;SDS011;13578;53.450;15.496;2022-10-16T19:24:43;1.33;;;0.82;;
25721;SDS011;13578;53.450;15.496;2022-10-16T19:27:44;0.98;;;0.55;;
25721;SDS011;13578;53.450;15.496;2022-10-16T19:30:44;9.18;;;1.17;;
25721;SDS011;13578;53.450;15.496;2022-10-16T19:33:46;0.73;;;0.57;;